Decoded Metar for KALN (ALTON/ST LOUIS R in IL, USA) (IATA:ALN) | Meteo·Mobile Aviation Weather
aviador You're here:

KALN Decoded Metar

ALTON/ST LOUIS R in IL, USA
Report Time2018-09-21 11:50:00
UTC Time2018-09-21 12:12:53
Flight Rules vfr VFR
Wind230° at 07 kt
W.Decomp.*RWY 29: 3.6 kt HW 6 kt LCW
RWY 17: 3.4 kt HW 6.1 kt RCW
W.Rank230° ranks 27
Current wind is below 230° avg. (7.8)
Visibility9999 m
Phenomena:N/A
Clouds:Broken 090 Hf
Expected CloudBase > 400 ft AGL from Temp-Dew spread
Ceiling9,000 ft
Temp23°C (ISA +9)
Dew Point22°C (94% RH)
QNH1015 hPa
Density Alt1,883 ft
Elevation545 ft
Report Wrong Elevation
Raw Report
KALN 211150Z 23007KT 10SM BKN090 23/22 A2996=

Extra information for KALN:More info

Metar Taf Metar & Taf Last 4 Metars F.Rules Stats Wind Profile Meteogram Temp Stats Airport Information Weather charts Add Link Nearby VenuesMetar ALERT Operation Metar Decoded Social comments

AIRNAV info for KALN